LIBD/BRI METAR and TAF weather

Enter ICAO airport designator
Station Type Date Time Source
LIBD METAR 2019/02/16 17:50 UTC NOAA

LIBD 161750Z 35004KT 310V020 CAVOK 09/04 Q1029


Station Type Date Time Source
LIBD Decoded METAR 2019/02/16 17:50 UTC NOAA

Bari / Palese Macchie, Italy (LIBD) 41-08N 016-47E 49M
Feb 16, 2019 - 12:50 PM EST / 2019.02.16 1750 UTC
Wind: from the N (350 degrees) at 5 MPH (4 KT) (direction variable):0
Visibility: greater than 7 mile(s):0
Temperature: 48 F (9 C)
Dew Point: 39 F (4 C)
Relative Humidity: 70%
Pressure (altimeter): 30.39 in. Hg (1029 hPa)
ob: LIBD 161750Z 35004KT 310V020 CAVOK 09/04 Q1029
cycle: 18

Station Type Date Time Source
LIBD TAF 2019/02/16 18:22 UTC NOAA

TAF LIBD 161700Z 1618/1718 30008KT CAVOK


Example: see airport list